createdAt,value
2022-09-26T00:00:26.326Z,20.29
2022-09-26T00:01:26.363Z,20.29
2022-09-26T00:02:26.348Z,20.31
2022-09-26T00:03:26.272Z,20.31
2022-09-26T00:04:31.828Z,20.29
2022-09-26T00:05:27.249Z,20.29
2022-09-26T00:06:26.241Z,20.28
2022-09-26T00:07:26.226Z,20.29
2022-09-26T00:08:26.240Z,20.29
2022-09-26T00:09:26.207Z,20.29
2022-09-26T00:10:26.198Z,20.29
2022-09-26T00:11:26.186Z,20.29
2022-09-26T00:12:26.200Z,20.28
2022-09-26T00:13:26.165Z,20.31
2022-09-26T00:14:26.155Z,20.28
2022-09-26T00:15:26.142Z,20.29
2022-09-26T00:16:26.257Z,20.29
2022-09-26T00:17:26.123Z,20.29
2022-09-26T00:18:26.112Z,20.28
2022-09-26T00:19:26.102Z,20.29
2022-09-26T00:20:26.121Z,20.29
2022-09-26T00:21:26.085Z,20.29
2022-09-26T00:22:26.077Z,20.29
2022-09-26T00:23:26.061Z,20.28
2022-09-26T00:24:26.055Z,20.28
2022-09-26T00:25:26.069Z,20.29
2022-09-26T00:26:26.032Z,20.29
2022-09-26T00:27:26.020Z,20.28
2022-09-26T00:28:26.018Z,20.29
2022-09-26T00:29:25.997Z,20.28
2022-09-26T00:30:26.049Z,20.28
2022-09-26T00:31:25.996Z,20.28
2022-09-26T00:32:25.985Z,20.28
2022-09-26T00:33:25.974Z,20.28
2022-09-26T00:34:25.944Z,20.28
2022-09-26T00:35:25.938Z,20.28
2022-09-26T00:36:36.881Z,20.29
2022-09-26T00:37:26.908Z,20.28
2022-09-26T00:38:25.927Z,20.28
2022-09-26T00:39:25.888Z,20.28
2022-09-26T00:40:26.066Z,20.29
2022-09-26T00:41:25.866Z,20.29
2022-09-26T00:42:25.858Z,20.26
2022-09-26T00:43:25.845Z,20.29
2022-09-26T00:44:25.860Z,20.28
2022-09-26T00:45:25.824Z,20.28
2022-09-26T00:46:25.910Z,20.28
2022-09-26T00:47:25.803Z,20.28
2022-09-26T00:48:25.820Z,20.28
2022-09-26T00:49:25.807Z,20.28
2022-09-26T00:50:25.796Z,20.26
2022-09-26T00:51:25.761Z,20.28
2022-09-26T00:52:25.750Z,20.28
2022-09-26T00:53:25.739Z,20.26
2022-09-26T00:54:25.734Z,20.28
2022-09-26T00:55:25.743Z,20.26
2022-09-26T00:56:25.710Z,20.28
2022-09-26T00:57:25.699Z,20.28
2022-09-26T00:58:25.689Z,20.28
2022-09-26T00:59:25.675Z,20.28
2022-09-26T01:00:25.665Z,20.28
2022-09-26T01:01:25.792Z,20.28
2022-09-26T01:02:25.738Z,20.28
2022-09-26T01:03:25.632Z,20.28
2022-09-26T01:04:25.645Z,20.28
2022-09-26T01:05:25.638Z,20.28
2022-09-26T01:06:25.601Z,20.28
2022-09-26T01:07:25.588Z,20.28
2022-09-26T01:08:25.581Z,20.28
2022-09-26T01:09:25.567Z,20.26
2022-09-26T01:10:25.580Z,20.28
2022-09-26T01:11:25.572Z,20.26
2022-09-26T01:12:25.537Z,20.24
2022-09-26T01:13:25.547Z,20.28
2022-09-26T01:14:25.516Z,20.26
2022-09-26T01:15:25.503Z,20.28
2022-09-26T01:16:25.562Z,20.28
2022-09-26T01:17:25.505Z,20.28
2022-09-26T01:18:25.470Z,20.26
2022-09-26T01:19:25.460Z,20.26
2022-09-26T01:20:25.570Z,20.28
2022-09-26T01:21:25.465Z,20.28
2022-09-26T01:22:25.428Z,20.26
2022-09-26T01:23:25.423Z,20.28
2022-09-26T01:24:25.410Z,20.26
2022-09-26T01:25:25.398Z,20.28
2022-09-26T01:26:25.385Z,20.26
2022-09-26T01:27:25.399Z,20.26
2022-09-26T01:28:25.367Z,20.26
2022-09-26T01:29:25.352Z,20.26
2022-09-26T01:30:25.372Z,20.26
2022-09-26T01:31:25.433Z,20.26
2022-09-26T01:32:25.347Z,20.26
2022-09-26T01:33:25.310Z,20.26
2022-09-26T01:34:25.302Z,20.26
2022-09-26T01:35:25.289Z,20.26
2022-09-26T01:36:25.306Z,20.26
2022-09-26T01:37:25.270Z,20.26
2022-09-26T01:38:25.283Z,20.24
2022-09-26T01:39:25.247Z,20.28
2022-09-26T01:40:25.338Z,20.26
2022-09-26T01:41:25.228Z,20.26
2022-09-26T01:42:25.218Z,20.26
2022-09-26T01:43:25.237Z,20.24
2022-09-26T01:44:25.195Z,20.26
2022-09-26T01:45:25.186Z,20.26
2022-09-26T01:46:25.256Z,20.26
2022-09-26T01:47:25.163Z,20.24
2022-09-26T01:48:25.153Z,20.24
2022-09-26T01:49:25.167Z,20.26
2022-09-26T01:50:25.131Z,20.26
2022-09-26T01:51:25.121Z,20.26
2022-09-26T01:52:25.134Z,20.26
2022-09-26T01:53:25.122Z,20.26
2022-09-26T01:54:25.112Z,20.26
2022-09-26T01:55:25.079Z,20.28
2022-09-26T01:56:25.073Z,20.28
2022-09-26T01:57:25.057Z,20.26
2022-09-26T01:58:25.072Z,20.24
2022-09-26T01:59:25.036Z,20.26
2022-09-26T02:00:25.027Z,20.26
2022-09-26T02:01:25.105Z,20.26
2022-09-26T02:02:25.033Z,20.28
2022-09-26T02:03:24.991Z,20.26
2022-09-26T02:04:25.006Z,20.26
2022-09-26T02:05:24.971Z,20.26
2022-09-26T02:06:24.963Z,20.26
2022-09-26T02:07:24.949Z,20.24
2022-09-26T02:08:24.965Z,20.26
2022-09-26T02:09:24.950Z,20.26
2022-09-26T02:10:24.941Z,20.26
2022-09-26T02:11:24.906Z,20.24
2022-09-26T02:12:24.898Z,20.26
2022-09-26T02:13:24.884Z,20.24
2022-09-26T02:14:24.877Z,20.24
2022-09-26T02:15:24.863Z,20.26
2022-09-26T02:16:24.933Z,20.24
2022-09-26T02:17:24.841Z,20.24
2022-09-26T02:18:24.836Z,20.26
2022-09-26T02:19:24.819Z,20.26
2022-09-26T02:20:24.812Z,20.24
2022-09-26T02:21:24.799Z,20.24
2022-09-26T02:22:24.816Z,20.24
2022-09-26T02:23:24.777Z,20.24
2022-09-26T02:24:24.795Z,20.24
2022-09-26T02:25:24.758Z,20.24
2022-09-26T02:26:24.746Z,20.24
2022-09-26T02:27:24.734Z,20.24
2022-09-26T02:28:24.751Z,20.24
2022-09-26T02:29:24.714Z,20.24
2022-09-26T02:30:24.706Z,20.24
2022-09-26T02:31:24.775Z,20.24
2022-09-26T02:32:24.685Z,20.24
2022-09-26T02:33:24.695Z,20.24
2022-09-26T02:34:24.662Z,20.24
2022-09-26T02:35:24.649Z,20.24
2022-09-26T02:36:24.648Z,20.26
2022-09-26T02:37:24.741Z,20.24
2022-09-26T02:38:24.621Z,20.26
2022-09-26T02:39:24.607Z,20.24
2022-09-26T02:40:24.684Z,20.24
2022-09-26T02:41:24.586Z,20.24
2022-09-26T02:42:24.592Z,20.24
2022-09-26T02:43:24.588Z,20.24
2022-09-26T02:44:24.558Z,20.23
2022-09-26T02:45:24.611Z,20.24
2022-09-26T02:46:24.537Z,20.24
2022-09-26T02:47:24.523Z,20.24
2022-09-26T02:48:24.535Z,20.24
2022-09-26T02:49:24.502Z,20.24
2022-09-26T02:50:24.499Z,20.24
2022-09-26T02:51:24.481Z,20.24
2022-09-26T02:52:24.473Z,20.24
2022-09-26T02:53:24.491Z,20.23
2022-09-26T02:54:24.451Z,20.23
2022-09-26T02:55:24.463Z,20.23
2022-09-26T02:56:24.451Z,20.24
2022-09-26T02:57:24.417Z,20.23
2022-09-26T02:58:24.407Z,20.23
2022-09-26T02:59:24.421Z,20.23
2022-09-26T03:00:24.569Z,20.23
2022-09-26T03:01:24.405Z,20.24
2022-09-26T03:02:24.368Z,20.23
2022-09-26T03:03:24.421Z,20.23
2022-09-26T03:04:24.476Z,20.24
2022-09-26T03:05:24.340Z,20.24
2022-09-26T03:06:24.345Z,20.23
2022-09-26T03:07:24.316Z,20.21
2022-09-26T03:08:24.304Z,20.24
2022-09-26T03:09:24.315Z,20.24
2022-09-26T03:10:24.294Z,20.24
2022-09-26T03:11:24.299Z,20.23
2022-09-26T03:12:24.285Z,20.23
2022-09-26T03:13:24.250Z,20.23
2022-09-26T03:14:24.243Z,20.20
2022-09-26T03:15:24.249Z,20.23
2022-09-26T03:16:24.258Z,20.23
2022-09-26T03:17:24.207Z,20.24
2022-09-26T03:18:24.198Z,20.24
2022-09-26T03:19:24.184Z,20.23
2022-09-26T03:20:24.203Z,20.24
2022-09-26T03:21:24.166Z,20.24
2022-09-26T03:22:24.154Z,20.23
2022-09-26T03:23:24.148Z,20.23
2022-09-26T03:24:24.132Z,20.23
2022-09-26T03:25:24.151Z,20.24
2022-09-26T03:26:24.112Z,20.23
2022-09-26T03:27:24.102Z,20.23
2022-09-26T03:28:24.111Z,20.21
2022-09-26T03:29:24.080Z,20.23
2022-09-26T03:30:24.070Z,20.23
2022-09-26T03:31:24.129Z,20.23
2022-09-26T03:32:24.049Z,20.20
2022-09-26T03:33:24.048Z,20.23
2022-09-26T03:34:24.029Z,20.23
2022-09-26T03:35:24.020Z,20.23
2022-09-26T03:36:24.006Z,20.23
2022-09-26T03:37:24.022Z,20.21
2022-09-26T03:38:23.985Z,20.21
2022-09-26T03:39:23.974Z,20.23
2022-09-26T03:40:24.036Z,20.23
2022-09-26T03:41:23.954Z,20.24
2022-09-26T03:42:23.967Z,20.23
2022-09-26T03:43:23.959Z,20.23
2022-09-26T03:44:23.976Z,20.23
2022-09-26T03:45:23.986Z,20.23
2022-09-26T03:46:23.903Z,20.23
2022-09-26T03:47:23.890Z,20.23
2022-09-26T03:48:23.880Z,20.21
2022-09-26T03:49:23.869Z,20.23
2022-09-26T03:50:23.881Z,20.23
2022-09-26T03:51:23.848Z,20.23
2022-09-26T03:52:23.840Z,20.24
2022-09-26T03:53:23.849Z,20.23
2022-09-26T03:54:23.829Z,20.23
2022-09-26T03:55:23.805Z,20.23
2022-09-26T03:56:23.795Z,20.24
2022-09-26T03:57:23.792Z,20.24
2022-09-26T03:58:23.799Z,20.24
2022-09-26T03:59:23.764Z,20.23
2022-09-26T04:00:23.776Z,20.24
2022-09-26T04:01:23.844Z,20.23
2022-09-26T04:02:23.801Z,20.24
2022-09-26T04:03:23.728Z,20.23
2022-09-26T04:04:23.719Z,20.23
2022-09-26T04:05:23.700Z,20.21
2022-09-26T04:06:23.692Z,20.23
2022-09-26T04:07:23.701Z,20.24
2022-09-26T04:08:23.671Z,20.23
2022-09-26T04:09:23.657Z,20.24
2022-09-26T04:10:23.652Z,20.23
2022-09-26T04:11:23.639Z,20.21
2022-09-26T04:12:23.652Z,20.21
2022-09-26T04:13:49.618Z,20.23
2022-09-26T04:14:24.614Z,20.23
2022-09-26T04:15:23.596Z,20.23
2022-09-26T04:16:24.133Z,20.23
2022-09-26T04:17:23.573Z,20.21
2022-09-26T04:18:23.583Z,20.23
2022-09-26T04:19:23.553Z,20.24
2022-09-26T04:20:23.544Z,20.23
2022-09-26T04:21:23.531Z,20.23
2022-09-26T04:22:23.544Z,20.23
2022-09-26T04:23:23.510Z,20.21
2022-09-26T04:24:23.501Z,20.23
2022-09-26T04:25:23.511Z,20.23
2022-09-26T04:26:24.224Z,20.23
2022-09-26T04:27:23.468Z,20.23
2022-09-26T04:28:23.466Z,20.21
2022-09-26T04:29:23.446Z,20.23
2022-09-26T04:30:23.459Z,20.23
2022-09-26T04:31:23.510Z,20.21
2022-09-26T04:32:23.444Z,20.21
2022-09-26T04:33:23.403Z,20.23
2022-09-26T04:34:27.016Z,20.21
2022-09-26T04:35:23.406Z,20.23
2022-09-26T04:36:23.379Z,20.21
2022-09-26T04:37:23.361Z,20.23
2022-09-26T04:38:23.354Z,20.23
2022-09-26T04:39:23.382Z,20.23
2022-09-26T04:40:23.402Z,20.21
2022-09-26T04:41:23.340Z,20.21
2022-09-26T04:42:23.309Z,20.21
2022-09-26T04:43:23.301Z,20.23
2022-09-26T04:44:23.288Z,20.21
2022-09-26T04:45:23.341Z,20.21
2022-09-26T04:46:28.255Z,20.20
2022-09-26T04:47:24.258Z,20.21
2022-09-26T04:48:23.269Z,20.21
2022-09-26T04:49:23.233Z,20.23
2022-09-26T04:50:23.229Z,20.21
2022-09-26T04:51:23.213Z,20.21
2022-09-26T04:52:23.227Z,20.21
2022-09-26T04:53:23.191Z,20.23
2022-09-26T04:54:23.203Z,20.23
2022-09-26T04:55:23.174Z,20.23
2022-09-26T04:56:23.181Z,20.21
2022-09-26T04:57:23.150Z,20.20
2022-09-26T04:58:23.141Z,20.20
2022-09-26T04:59:23.131Z,20.21
2022-09-26T05:00:23.153Z,20.21
2022-09-26T05:01:23.190Z,20.21
2022-09-26T05:02:23.164Z,20.21
2022-09-26T05:03:23.107Z,20.21
2022-09-26T05:04:27.456Z,20.21
2022-09-26T05:05:23.064Z,20.21
2022-09-26T05:06:23.055Z,20.21
2022-09-26T05:07:23.044Z,20.21
2022-09-26T05:08:23.034Z,20.21
2022-09-26T05:09:23.043Z,20.21
2022-09-26T05:10:23.012Z,20.21
2022-09-26T05:11:23.000Z,20.21
2022-09-26T05:12:22.994Z,20.21
2022-09-26T05:13:22.981Z,20.21
2022-09-26T05:14:22.990Z,20.21
2022-09-26T05:15:22.961Z,20.21
2022-09-26T05:16:22.986Z,20.21
2022-09-26T05:17:22.938Z,20.21
2022-09-26T05:18:22.932Z,20.21
2022-09-26T05:19:22.936Z,20.21
2022-09-26T05:20:23.026Z,20.21
2022-09-26T05:21:22.896Z,20.21
2022-09-26T05:22:22.886Z,20.21
2022-09-26T05:23:22.874Z,20.21
2022-09-26T05:24:22.887Z,20.20
2022-09-26T05:25:22.855Z,20.21
2022-09-26T05:26:22.848Z,20.20
2022-09-26T05:27:22.833Z,20.21
2022-09-26T05:28:22.821Z,20.21
2022-09-26T05:29:22.831Z,20.23
2022-09-26T05:30:22.802Z,20.20
2022-09-26T05:31:22.858Z,20.21
2022-09-26T05:32:22.804Z,20.20
2022-09-26T05:33:22.769Z,20.20
2022-09-26T05:34:22.786Z,20.21
2022-09-26T05:35:22.750Z,20.21
2022-09-26T05:36:22.852Z,20.21
2022-09-26T05:37:22.730Z,20.21
2022-09-26T05:38:22.721Z,20.21
2022-09-26T05:39:22.731Z,20.21
2022-09-26T05:40:22.745Z,20.20
2022-09-26T05:41:22.684Z,20.21
2022-09-26T05:42:22.673Z,20.20
2022-09-26T05:43:22.664Z,20.20
2022-09-26T05:44:22.659Z,20.21
2022-09-26T05:45:22.661Z,20.21
2022-09-26T05:46:22.686Z,20.20
2022-09-26T05:47:22.632Z,20.20
2022-09-26T05:48:22.615Z,20.23
2022-09-26T05:49:22.599Z,20.20
2022-09-26T05:50:22.610Z,20.21
2022-09-26T05:51:22.589Z,20.20
2022-09-26T05:52:22.592Z,20.21
2022-09-26T05:53:22.577Z,20.21
2022-09-26T05:54:22.549Z,20.21
2022-09-26T05:55:22.535Z,20.21
2022-09-26T05:56:22.529Z,20.20
2022-09-26T05:57:22.696Z,20.20
2022-09-26T05:58:22.510Z,20.21
2022-09-26T05:59:22.509Z,20.21
2022-09-26T06:00:22.495Z,20.20
2022-09-26T06:01:22.648Z,20.21
2022-09-26T06:02:22.554Z,20.21
2022-09-26T06:03:22.472Z,20.20
2022-09-26T06:04:22.461Z,20.20
2022-09-26T06:05:22.449Z,20.20
2022-09-26T06:06:22.424Z,20.21
2022-09-26T06:07:22.433Z,20.20
2022-09-26T06:08:22.520Z,20.21
2022-09-26T06:09:22.387Z,20.20
2022-09-26T06:10:22.382Z,20.21
2022-09-26T06:11:22.366Z,20.20
2022-09-26T06:12:22.359Z,20.20
2022-09-26T06:13:22.367Z,20.21
2022-09-26T06:14:22.357Z,20.21
2022-09-26T06:15:22.331Z,20.21
2022-09-26T06:16:22.391Z,20.21
2022-09-26T06:17:22.302Z,20.21
2022-09-26T06:18:22.302Z,20.20
2022-09-26T06:19:23.329Z,20.20
2022-09-26T06:20:22.274Z,20.21
2022-09-26T06:21:22.263Z,20.20
2022-09-26T06:22:22.251Z,20.21
2022-09-26T06:23:22.239Z,20.23
2022-09-26T06:24:22.327Z,20.21
2022-09-26T06:25:22.219Z,20.21
2022-09-26T06:26:22.238Z,20.21
2022-09-26T06:27:22.201Z,20.21
2022-09-26T06:28:22.186Z,20.20
2022-09-26T06:29:22.196Z,20.20
2022-09-26T06:30:22.169Z,20.20
2022-09-26T06:31:22.231Z,20.20
2022-09-26T06:32:22.176Z,20.21
2022-09-26T06:33:22.137Z,20.21
2022-09-26T06:34:22.143Z,20.21
2022-09-26T06:35:22.132Z,20.20
2022-09-26T06:36:22.106Z,20.20
2022-09-26T06:37:22.110Z,20.18
2022-09-26T06:38:22.081Z,20.21
2022-09-26T06:39:22.071Z,20.21
2022-09-26T06:40:22.133Z,20.20
2022-09-26T06:41:22.065Z,20.21
2022-09-26T06:42:22.038Z,20.21
2022-09-26T06:43:22.026Z,20.20
2022-09-26T06:44:22.016Z,20.20
2022-09-26T06:45:22.004Z,20.21
2022-09-26T06:46:22.035Z,20.20
2022-09-26T06:47:22.009Z,20.21
2022-09-26T06:48:24.551Z,20.20
2022-09-26T06:49:21.966Z,20.20
2022-09-26T06:50:21.952Z,20.20
2022-09-26T06:51:21.943Z,20.20
2022-09-26T06:52:21.933Z,20.21
2022-09-26T06:53:21.941Z,20.20
2022-09-26T06:54:21.910Z,20.20
2022-09-26T06:55:21.898Z,20.18
2022-09-26T06:56:21.915Z,20.21
2022-09-26T06:57:21.901Z,20.18
2022-09-26T06:58:21.867Z,20.20
2022-09-26T06:59:21.855Z,20.20
2022-09-26T07:00:21.969Z,20.20
2022-09-26T07:01:21.987Z,20.20
2022-09-26T07:02:21.944Z,20.20
2022-09-26T07:03:21.833Z,20.20
2022-09-26T07:04:21.804Z,20.20
2022-09-26T07:05:21.788Z,20.20
2022-09-26T07:06:21.780Z,20.20
2022-09-26T07:07:21.787Z,20.20
2022-09-26T07:08:37.433Z,20.20
2022-09-26T07:09:22.746Z,20.20
2022-09-26T07:10:21.738Z,20.20
2022-09-26T07:11:38.293Z,20.21
2022-09-26T07:12:22.743Z,20.20
2022-09-26T07:13:21.723Z,20.18
2022-09-26T07:14:21.716Z,20.20
2022-09-26T07:15:21.681Z,20.21
2022-09-26T07:16:21.754Z,20.20
2022-09-26T07:17:21.659Z,20.18
2022-09-26T07:18:21.672Z,20.21
2022-09-26T07:19:21.640Z,20.20
2022-09-26T07:20:21.628Z,20.20
2022-09-26T07:21:21.628Z,20.20
2022-09-26T07:22:21.609Z,20.20
2022-09-26T07:23:21.616Z,20.21
2022-09-26T07:24:21.587Z,20.20
2022-09-26T07:25:21.573Z,20.21
2022-09-26T07:26:21.564Z,20.20
2022-09-26T07:27:21.554Z,20.20
2022-09-26T07:28:21.606Z,20.21
2022-09-26T07:29:21.530Z,20.20
2022-09-26T07:30:21.520Z,20.18
2022-09-26T07:31:21.635Z,20.20
2022-09-26T07:32:21.502Z,20.18
2022-09-26T07:33:21.490Z,20.21
2022-09-26T07:34:21.481Z,20.20
2022-09-26T07:35:21.467Z,20.20
2022-09-26T07:36:21.468Z,20.20
2022-09-26T07:37:21.465Z,20.20
2022-09-26T07:38:21.433Z,20.20
2022-09-26T07:39:21.428Z,20.20
2022-09-26T07:40:21.441Z,20.21
2022-09-26T07:41:21.406Z,20.20
2022-09-26T07:42:21.413Z,20.21
2022-09-26T07:43:31.981Z,20.20
2022-09-26T07:45:29.520Z,20.21
2022-09-26T07:46:22.403Z,20.20
2022-09-26T07:47:21.342Z,20.18
2022-09-26T07:48:21.328Z,20.20
2022-09-26T07:49:21.328Z,20.21
2022-09-26T07:50:21.327Z,20.20
2022-09-26T07:51:21.299Z,20.21
2022-09-26T07:52:21.286Z,20.20
2022-09-26T07:53:21.274Z,20.20
2022-09-26T07:54:21.264Z,20.20
2022-09-26T07:55:21.300Z,20.20
2022-09-26T07:56:21.243Z,20.21
2022-09-26T07:57:21.232Z,20.18
2022-09-26T07:58:21.221Z,20.18
2022-09-26T07:59:21.217Z,20.21
2022-09-26T08:00:21.221Z,20.20
2022-09-26T08:01:21.279Z,20.20
2022-09-26T08:02:21.376Z,20.21
2022-09-26T08:03:21.278Z,20.20
2022-09-26T08:04:21.156Z,20.21
2022-09-26T08:05:21.170Z,20.23
2022-09-26T08:06:21.134Z,20.23
2022-09-26T08:07:21.147Z,20.24
2022-09-26T08:08:21.119Z,20.26
2022-09-26T08:09:21.102Z,20.26
2022-09-26T08:10:21.257Z,20.28
2022-09-26T08:11:21.197Z,20.29
2022-09-26T08:12:21.070Z,20.31
2022-09-26T08:13:21.069Z,20.29
2022-09-26T08:14:21.055Z,20.32
2022-09-26T08:15:21.038Z,20.33
2022-09-26T08:16:21.155Z,20.33
2022-09-26T08:17:21.049Z,20.36
2022-09-26T08:18:21.004Z,20.38
2022-09-26T08:19:20.997Z,20.38
2022-09-26T08:20:21.086Z,20.39
2022-09-26T08:21:20.972Z,20.38
2022-09-26T08:22:20.960Z,20.38
2022-09-26T08:23:20.980Z,20.39
2022-09-26T08:24:20.938Z,20.39
2022-09-26T08:25:20.934Z,20.42
2022-09-26T08:26:20.920Z,20.41
2022-09-26T08:27:20.931Z,20.43
2022-09-26T08:28:20.895Z,20.43
2022-09-26T08:29:20.888Z,20.47
2022-09-26T08:30:20.977Z,20.47
2022-09-26T08:31:20.952Z,20.48
2022-09-26T08:32:20.894Z,20.48
2022-09-26T08:33:20.841Z,20.48
2022-09-26T08:34:25.055Z,20.50
2022-09-26T08:35:20.821Z,20.51
2022-09-26T08:36:20.810Z,20.51
2022-09-26T08:37:20.819Z,20.52
2022-09-26T08:38:20.805Z,20.52
2022-09-26T08:39:20.777Z,20.51
2022-09-26T08:40:21.014Z,20.54
2022-09-26T08:41:20.755Z,20.54
2022-09-26T08:42:20.742Z,20.54
2022-09-26T08:43:20.752Z,20.55
2022-09-26T08:44:20.724Z,20.55
2022-09-26T08:45:20.719Z,20.55
2022-09-26T08:46:20.770Z,20.57
2022-09-26T08:47:20.691Z,20.55
2022-09-26T08:48:20.701Z,20.58
2022-09-26T08:49:20.670Z,20.57
2022-09-26T08:50:20.674Z,20.57
2022-09-26T08:51:22.449Z,20.58
2022-09-26T08:52:20.653Z,20.58
2022-09-26T08:53:20.623Z,20.58
2022-09-26T08:54:20.612Z,20.59
2022-09-26T08:55:20.610Z,20.59
2022-09-26T08:56:20.642Z,20.61
2022-09-26T08:57:20.591Z,20.59
2022-09-26T08:58:23.183Z,20.62
2022-09-26T08:59:20.559Z,20.62
2022-09-26T09:00:20.661Z,20.64
2022-09-26T09:01:20.621Z,20.62
2022-09-26T09:02:20.665Z,20.62
2022-09-26T09:03:20.519Z,20.62
2022-09-26T09:04:20.547Z,20.64
2022-09-26T09:05:20.496Z,20.64
2022-09-26T09:06:20.513Z,20.64
2022-09-26T09:07:20.479Z,20.66
2022-09-26T09:08:20.465Z,20.66
2022-09-26T09:09:20.458Z,20.67
2022-09-26T09:10:20.470Z,20.66
2022-09-26T09:11:20.436Z,20.67
2022-09-26T09:12:23.697Z,20.69
2022-09-26T09:13:20.411Z,20.66
2022-09-26T09:14:20.423Z,20.67
2022-09-26T09:15:25.828Z,20.67
2022-09-26T09:16:21.427Z,20.66
2022-09-26T09:17:20.390Z,20.67
2022-09-26T09:18:20.381Z,20.67
2022-09-26T09:19:20.352Z,20.67
2022-09-26T09:20:20.360Z,20.67
2022-09-26T09:21:20.329Z,20.67
2022-09-26T09:22:20.317Z,20.67
2022-09-26T09:23:20.306Z,20.67
2022-09-26T09:24:20.316Z,20.67
2022-09-26T09:25:20.283Z,20.66
2022-09-26T09:28:21.250Z,20.69
2022-09-26T09:29:20.263Z,20.69
2022-09-26T09:30:20.282Z,20.67
2022-09-26T09:31:20.267Z,20.69
2022-09-26T09:32:20.232Z,20.67
2022-09-26T09:33:20.198Z,20.69
2022-09-26T09:34:20.187Z,20.69
2022-09-26T09:35:20.178Z,20.70
2022-09-26T09:36:20.192Z,20.70
2022-09-26T09:37:20.154Z,20.72
2022-09-26T09:38:20.162Z,20.72
2022-09-26T09:39:20.133Z,20.70
2022-09-26T09:40:20.182Z,20.73
2022-09-26T09:41:20.162Z,20.72
2022-09-26T09:42:20.099Z,20.73
2022-09-26T09:43:20.091Z,20.73
2022-09-26T09:44:20.082Z,20.73
2022-09-26T09:45:20.068Z,20.73
2022-09-26T09:46:20.144Z,20.72
2022-09-26T09:47:20.046Z,20.73
2022-09-26T09:48:20.037Z,20.73
2022-09-26T09:49:20.023Z,20.74
2022-09-26T09:50:20.014Z,20.73
2022-09-26T09:51:20.034Z,20.73
2022-09-26T09:52:20.049Z,20.74
2022-09-26T09:53:19.981Z,20.74
2022-09-26T09:54:19.977Z,20.73
2022-09-26T09:55:19.957Z,20.74
2022-09-26T09:56:19.949Z,20.74
2022-09-26T09:57:19.962Z,20.74
2022-09-26T09:58:19.926Z,20.74
2022-09-26T09:59:19.916Z,20.74
2022-09-26T10:00:19.906Z,20.76
2022-09-26T10:01:19.892Z,20.74
2022-09-26T10:02:19.915Z,20.76
2022-09-26T10:03:19.921Z,20.76
2022-09-26T10:04:19.862Z,20.76
2022-09-26T10:05:19.852Z,20.74
2022-09-26T10:06:46.475Z,20.76
2022-09-26T10:07:20.847Z,20.77
2022-09-26T10:08:19.851Z,20.76
2022-09-26T10:09:39.570Z,20.76
2022-09-26T10:10:20.794Z,20.74
2022-09-26T10:11:19.907Z,20.76
2022-09-26T10:12:19.775Z,20.74
2022-09-26T10:13:19.780Z,20.76
2022-09-26T10:14:19.753Z,20.74
2022-09-26T10:15:19.824Z,20.74
2022-09-26T10:16:19.788Z,20.74
2022-09-26T10:17:19.763Z,20.76
2022-09-26T10:18:27.430Z,20.74
2022-09-26T10:19:20.697Z,20.76
2022-09-26T10:20:19.685Z,20.76
2022-09-26T10:21:19.711Z,20.76
2022-09-26T10:22:19.668Z,20.74
2022-09-26T10:23:19.653Z,20.76
2022-09-26T10:24:19.668Z,20.74
2022-09-26T10:25:19.630Z,20.76
2022-09-26T10:26:19.647Z,20.76
2022-09-26T10:27:19.610Z,20.74
2022-09-26T10:28:19.617Z,20.76
2022-09-26T10:29:19.586Z,20.76
2022-09-26T10:30:19.576Z,20.76
2022-09-26T10:31:19.628Z,20.76
2022-09-26T10:32:19.558Z,20.74
2022-09-26T10:33:19.564Z,20.76
2022-09-26T10:34:19.535Z,20.74
2022-09-26T10:35:20.018Z,20.74
2022-09-26T10:36:19.538Z,20.74
2022-09-26T10:37:19.499Z,20.76
2022-09-26T10:38:19.489Z,20.76
2022-09-26T10:39:19.477Z,20.76
2022-09-26T10:40:19.788Z,20.76
2022-09-26T10:41:19.479Z,20.77
2022-09-26T10:42:19.447Z,20.76
2022-09-26T10:43:19.439Z,20.76
2022-09-26T10:44:19.548Z,20.76
2022-09-26T10:45:19.413Z,20.76
2022-09-26T10:46:19.506Z,20.76
2022-09-26T10:47:19.433Z,20.74
2022-09-26T10:48:19.382Z,20.72
2022-09-26T10:49:19.369Z,20.73
2022-09-26T10:50:19.360Z,20.72
2022-09-26T10:51:19.348Z,20.70
2022-09-26T10:52:19.338Z,20.70
2022-09-26T10:53:19.346Z,20.67
2022-09-26T10:54:19.318Z,20.67
2022-09-26T10:55:19.305Z,20.67
2022-09-26T10:56:19.344Z,20.67
2022-09-26T10:57:19.283Z,20.69
2022-09-26T10:58:19.270Z,20.67
2022-09-26T10:59:19.272Z,20.67
2022-09-26T11:00:19.249Z,20.69
2022-09-26T11:01:19.304Z,20.69
2022-09-26T11:02:19.229Z,20.69
2022-09-26T11:03:19.260Z,20.70
2022-09-26T11:04:19.209Z,20.72
2022-09-26T11:05:19.197Z,20.70
2022-09-26T11:06:23.204Z,20.70
2022-09-26T11:07:19.194Z,20.72
2022-09-26T11:08:19.165Z,20.72
2022-09-26T11:09:19.153Z,20.73
2022-09-26T11:10:19.141Z,20.72
2022-09-26T11:11:19.129Z,20.74
2022-09-26T11:12:19.165Z,20.73
2022-09-26T11:13:19.110Z,20.74
2022-09-26T11:14:19.097Z,20.73
2022-09-26T11:15:19.108Z,20.74
2022-09-26T11:16:19.160Z,20.77
2022-09-26T11:17:19.087Z,20.74
2022-09-26T11:18:19.057Z,20.76
2022-09-26T11:19:19.050Z,20.74
2022-09-26T11:20:19.054Z,20.74
2022-09-26T11:21:28.817Z,20.76
2022-09-26T11:22:20.043Z,20.77
2022-09-26T11:23:18.999Z,20.76
2022-09-26T11:24:18.991Z,20.73
2022-09-26T11:25:18.990Z,20.76
2022-09-26T11:26:18.999Z,20.74
2022-09-26T11:27:18.957Z,20.74
2022-09-26T11:28:18.974Z,20.74
2022-09-26T11:29:18.938Z,20.72
2022-09-26T11:30:18.926Z,20.73
2022-09-26T11:31:18.991Z,20.73
2022-09-26T11:32:18.927Z,20.73
2022-09-26T11:33:18.924Z,20.73
2022-09-26T11:34:18.880Z,20.72
2022-09-26T11:35:18.871Z,20.72
2022-09-26T11:36:18.862Z,20.72
2022-09-26T11:37:18.846Z,20.72
2022-09-26T11:38:18.858Z,20.72
2022-09-26T11:39:18.825Z,20.70
2022-09-26T11:40:18.898Z,20.70
2022-09-26T11:41:18.804Z,20.70
2022-09-26T11:42:18.794Z,20.70
2022-09-26T11:43:18.801Z,20.70
2022-09-26T11:44:18.797Z,20.70
2022-09-26T11:45:18.760Z,20.70
2022-09-26T11:46:18.804Z,20.72
2022-09-26T11:47:18.739Z,20.70
2022-09-26T11:48:18.760Z,20.70
2022-09-26T11:49:18.720Z,20.69
2022-09-26T11:50:18.710Z,20.70
2022-09-26T11:51:18.695Z,20.70
2022-09-26T11:52:18.684Z,20.69
2022-09-26T11:53:18.673Z,20.69
2022-09-26T11:54:18.689Z,20.67
2022-09-26T11:55:18.655Z,20.67
2022-09-26T11:56:18.640Z,20.67
2022-09-26T11:57:18.631Z,20.66
2022-09-26T11:58:18.619Z,20.67
2022-09-26T11:59:18.609Z,20.64
2022-09-26T12:00:18.651Z,20.64
2022-09-26T12:01:18.590Z,20.66
2022-09-26T12:02:18.758Z,20.66
2022-09-26T12:03:18.690Z,20.64
2022-09-26T12:04:18.809Z,20.64
2022-09-26T12:05:18.546Z,20.64
2022-09-26T12:06:18.552Z,20.66
2022-09-26T12:07:18.542Z,20.64
2022-09-26T12:08:18.510Z,20.64
2022-09-26T12:09:18.503Z,20.66
2022-09-26T12:10:18.489Z,20.64
2022-09-26T12:11:18.502Z,20.67
2022-09-26T12:12:18.468Z,20.67
2022-09-26T12:13:18.457Z,20.69
2022-09-26T12:14:18.446Z,20.69
2022-09-26T12:15:18.438Z,20.70
2022-09-26T12:16:18.523Z,20.70
2022-09-26T12:17:18.416Z,20.72
2022-09-26T12:18:18.421Z,20.70
2022-09-26T12:19:18.417Z,20.72
2022-09-26T12:20:18.381Z,20.72
2022-09-26T12:21:18.396Z,20.73
2022-09-26T12:22:18.359Z,20.73
2022-09-26T12:23:18.373Z,20.73
2022-09-26T12:24:18.343Z,20.74
2022-09-26T12:25:20.383Z,20.74
2022-09-26T12:26:18.314Z,20.74
2022-09-26T12:27:18.331Z,20.76
2022-09-26T12:28:18.293Z,20.74
2022-09-26T12:29:18.284Z,20.76
2022-09-26T12:30:18.275Z,20.76
2022-09-26T12:31:19.862Z,20.76
2022-09-26T12:32:18.277Z,20.76
2022-09-26T12:33:18.264Z,20.77
2022-09-26T12:34:18.247Z,20.76
2022-09-26T12:35:18.216Z,20.77
2022-09-26T12:36:18.206Z,20.77
2022-09-26T12:37:18.204Z,20.77
2022-09-26T12:38:18.184Z,20.77
2022-09-26T12:39:18.197Z,20.77
2022-09-26T12:40:18.233Z,20.76
2022-09-26T12:41:18.153Z,20.77
2022-09-26T12:42:18.140Z,20.76
2022-09-26T12:43:18.129Z,20.77
2022-09-26T12:44:18.119Z,20.77
2022-09-26T12:45:18.129Z,20.77
2022-09-26T12:46:18.205Z,20.77
2022-09-26T12:47:18.089Z,20.77
2022-09-26T12:48:18.097Z,20.77
2022-09-26T12:49:18.083Z,20.77
2022-09-26T12:50:18.053Z,20.76
2022-09-26T12:51:18.045Z,20.77
2022-09-26T12:52:18.032Z,20.77
2022-09-26T12:53:18.023Z,20.76
2022-09-26T12:54:18.030Z,20.77
2022-09-26T12:55:17.999Z,20.77